createdAt,value
2019-01-27T00:01:47.276Z,73.49
2019-01-27T00:04:18.880Z,73.74
2019-01-27T00:06:51.279Z,73.82
2019-01-27T00:09:22.036Z,73.82
2019-01-27T00:11:54.262Z,73.96
2019-01-27T00:14:25.122Z,74.19
2019-01-27T00:16:55.864Z,74.28
2019-01-27T00:19:27.940Z,74.16
2019-01-27T00:22:00.111Z,74.37
2019-01-27T00:24:32.285Z,74.32
2019-01-27T00:27:02.672Z,74.09
2019-01-27T00:29:34.759Z,73.94
2019-01-27T00:32:07.282Z,73.99
2019-01-27T00:34:38.053Z,74.00
2019-01-27T00:37:10.334Z,74.07
2019-01-27T00:39:42.282Z,74.07
2019-01-27T00:42:12.706Z,74.01
2019-01-27T00:44:44.887Z,74.16
2019-01-27T00:47:17.040Z,73.89
2019-01-27T00:49:49.286Z,73.75
2019-01-27T00:52:20.286Z,73.60
2019-01-27T00:54:50.981Z,73.40
2019-01-27T00:57:23.073Z,73.33
2019-01-27T00:59:55.286Z,73.11
2019-01-27T01:02:25.871Z,72.93
2019-01-27T01:04:57.955Z,72.72
2019-01-27T01:07:29.959Z,72.48
2019-01-27T01:10:01.950Z,72.39
2019-01-27T01:12:33.949Z,72.37
2019-01-27T01:15:06.936Z,72.15
2019-01-27T01:19:16.786Z,71.75
2019-01-27T01:21:48.960Z,71.69
2019-01-27T01:24:20.995Z,71.85
2019-01-27T01:26:53.288Z,71.88
2019-01-27T01:29:24.017Z,71.87
2019-01-27T01:31:56.289Z,71.87
2019-01-27T01:34:27.017Z,71.98
2019-01-27T01:36:59.129Z,72.00
2019-01-27T01:39:31.283Z,72.01
2019-01-27T01:42:01.875Z,71.96
2019-01-27T01:44:33.941Z,71.99
2019-01-27T01:47:06.281Z,71.91
2019-01-27T01:49:36.855Z,71.97
2019-01-27T01:52:09.252Z,72.05
2019-01-27T01:54:39.809Z,72.04
2019-01-27T01:57:11.943Z,72.09
2019-01-27T01:59:44.275Z,72.11
2019-01-27T02:02:15.015Z,72.22
2019-01-27T02:04:47.955Z,72.35
2019-01-27T02:07:20.286Z,72.42
2019-01-27T02:09:52.286Z,72.55
2019-01-27T02:12:25.254Z,72.44
2019-01-27T02:15:00.239Z,72.48
2019-01-27T02:17:35.681Z,72.33
2019-01-27T02:20:08.382Z,72.47
2019-01-27T02:22:40.319Z,72.61
2019-01-27T02:25:11.287Z,72.61
2019-01-27T02:27:43.293Z,72.48
2019-01-27T02:31:19.354Z,72.56
2019-01-27T02:33:50.087Z,72.58
2019-01-27T02:36:22.289Z,72.42
2019-01-27T02:38:55.018Z,72.17
2019-01-27T02:41:27.104Z,72.10
2019-01-27T02:44:01.400Z,72.04
2019-01-27T02:46:33.340Z,71.93
2019-01-27T02:49:05.322Z,71.93
2019-01-27T02:51:37.328Z,71.61
2019-01-27T02:54:08.031Z,71.48
2019-01-27T02:56:40.111Z,71.50
2019-01-27T02:59:12.272Z,71.49
2019-01-27T03:01:42.791Z,71.58
2019-01-27T03:04:14.954Z,71.47
2019-01-27T03:07:01.634Z,71.52
2019-01-27T03:09:40.278Z,71.40
2019-01-27T03:12:10.845Z,71.37
2019-01-27T03:14:42.954Z,71.35
2019-01-27T03:17:16.562Z,71.23
2019-01-27T03:19:48.660Z,70.95
2019-01-27T03:22:20.919Z,70.92
2019-01-27T03:24:52.954Z,70.71
2019-01-27T03:27:24.956Z,70.65
2019-01-27T03:29:56.948Z,70.68
2019-01-27T03:32:29.114Z,70.82
2019-01-27T03:35:01.118Z,70.77
2019-01-27T03:37:33.277Z,70.49
2019-01-27T03:40:04.278Z,70.58
2019-01-27T03:42:34.869Z,70.64
2019-01-27T03:45:07.886Z,70.57
2019-01-27T03:47:39.950Z,70.61
2019-01-27T03:50:15.286Z,70.50
2019-01-27T03:52:46.283Z,70.19
2019-01-27T03:55:18.293Z,70.08
2019-01-27T03:57:49.072Z,70.13
2019-01-27T04:00:22.706Z,69.95
2019-01-27T04:02:55.144Z,70.02
2019-01-27T04:05:26.953Z,70.02
2019-01-27T04:07:58.977Z,69.85
2019-01-27T04:10:31.147Z,69.66
2019-01-27T04:13:03.159Z,69.63
2019-01-27T04:15:35.303Z,69.63
2019-01-27T04:18:06.430Z,69.58
2019-01-27T04:20:38.609Z,69.64
2019-01-27T04:23:10.775Z,69.62
2019-01-27T04:25:44.306Z,69.61
2019-01-27T04:28:15.020Z,69.67
2019-01-27T04:30:47.144Z,69.56
2019-01-27T04:33:19.372Z,69.49
2019-01-27T04:35:51.361Z,69.41
2019-01-27T04:38:21.868Z,69.47
2019-01-27T04:41:21.692Z,69.47
2019-01-27T04:43:53.792Z,69.25
2019-01-27T04:46:25.904Z,69.05
2019-01-27T04:48:57.950Z,69.12
2019-01-27T04:51:30.118Z,69.18
2019-01-27T04:54:00.732Z,69.28
2019-01-27T04:56:32.886Z,69.18
2019-01-27T04:59:04.952Z,69.04
2019-01-27T05:01:37.116Z,69.16
2019-01-27T05:04:27.662Z,69.12
2019-01-27T05:06:59.947Z,69.10
2019-01-27T05:09:31.952Z,69.05
2019-01-27T05:12:04.081Z,68.97
2019-01-27T05:14:34.680Z,68.92
2019-01-27T05:17:06.945Z,68.65
2019-01-27T05:19:39.105Z,68.37
2019-01-27T05:22:11.288Z,68.34
2019-01-27T05:24:41.984Z,67.94
2019-01-27T05:27:13.957Z,67.97
2019-01-27T05:29:46.063Z,67.90
2019-01-27T05:32:18.179Z,67.98
2019-01-27T05:34:50.281Z,67.92
2019-01-27T05:37:20.799Z,68.02
2019-01-27T05:39:52.948Z,68.23
2019-01-27T05:42:25.278Z,68.06
2019-01-27T05:44:55.805Z,68.11
2019-01-27T05:47:27.902Z,68.04
2019-01-27T05:49:59.957Z,67.77
2019-01-27T05:52:32.285Z,67.59
2019-01-27T05:55:03.067Z,67.37
2019-01-27T05:57:35.285Z,67.31
2019-01-27T06:00:08.368Z,67.31
2019-01-27T06:02:40.294Z,67.17
2019-01-27T06:05:12.434Z,67.17
2019-01-27T06:07:44.321Z,67.10
2019-01-27T06:10:14.987Z,67.10
2019-01-27T06:12:47.260Z,66.88
2019-01-27T06:15:18.004Z,66.88
2019-01-27T06:17:50.140Z,66.93
2019-01-27T06:20:22.286Z,66.98
2019-01-27T06:22:52.868Z,67.08
2019-01-27T06:25:26.172Z,67.08
2019-01-27T06:29:46.554Z,67.01
2019-01-27T06:32:55.306Z,67.06
2019-01-27T06:35:27.436Z,67.06
2019-01-27T06:37:59.623Z,66.91
2019-01-27T06:40:31.692Z,66.98
2019-01-27T06:43:03.752Z,66.98
2019-01-27T06:45:35.927Z,66.93
2019-01-27T06:48:08.385Z,66.93
2019-01-27T06:50:40.412Z,67.22
2019-01-27T06:53:12.586Z,66.96
2019-01-27T06:55:44.615Z,66.96
2019-01-27T06:58:16.723Z,66.87
2019-01-27T07:00:56.286Z,66.88
2019-01-27T07:03:44.671Z,66.94
2019-01-27T07:06:38.341Z,66.90
2019-01-27T07:09:19.635Z,66.82
2019-01-27T07:12:19.719Z,66.82
2019-01-27T07:15:04.769Z,66.74
2019-01-27T07:17:55.522Z,66.82
2019-01-27T07:20:49.939Z,66.65
2019-01-27T07:23:39.081Z,66.65
2019-01-27T07:26:29.716Z,66.70
2019-01-27T07:29:35.719Z,66.67
2019-01-27T07:32:35.507Z,66.59
2019-01-27T07:35:28.382Z,66.56
2019-01-27T07:38:17.485Z,66.48
2019-01-27T07:41:10.594Z,66.30
2019-01-27T07:43:50.400Z,66.30
2019-01-27T07:46:37.657Z,66.03
2019-01-27T07:49:17.283Z,66.03
2019-01-27T07:52:09.841Z,66.24
2019-01-27T07:54:59.320Z,66.26
2019-01-27T07:57:56.282Z,66.06
2019-01-27T08:00:33.667Z,65.92
2019-01-27T08:03:36.691Z,65.81
2019-01-27T08:06:27.320Z,65.70
2019-01-27T08:21:13.664Z,65.76
2019-01-27T08:24:13.476Z,65.95
2019-01-27T08:27:04.396Z,66.12
2019-01-27T08:29:59.476Z,66.12
2019-01-27T08:32:45.132Z,66.03
2019-01-27T08:35:41.421Z,66.03
2019-01-27T08:38:44.290Z,65.35
2019-01-27T08:41:33.020Z,65.35
2019-01-27T08:44:16.703Z,65.29
2019-01-27T08:46:55.287Z,65.54
2019-01-27T08:49:27.279Z,65.48
2019-01-27T08:51:58.066Z,65.48
2019-01-27T08:54:29.945Z,65.41
2019-01-27T08:57:01.952Z,65.12
2019-01-27T08:59:34.225Z,64.84
2019-01-27T09:02:22.276Z,64.90
2019-01-27T09:05:03.647Z,65.02
2019-01-27T09:07:53.571Z,64.51
2019-01-27T09:10:43.140Z,64.02
2019-01-27T09:13:35.383Z,63.49
2019-01-27T09:16:26.323Z,63.13
2019-01-27T09:19:15.135Z,63.41
2019-01-27T09:22:11.943Z,63.72
2019-01-27T09:24:55.127Z,64.09
2019-01-27T09:27:44.558Z,64.33
2019-01-27T09:30:43.564Z,63.65
2019-01-27T09:33:27.654Z,63.34
2019-01-27T09:36:30.375Z,63.02
2019-01-27T09:39:23.735Z,62.54
2019-01-27T09:42:26.685Z,62.81
2019-01-27T09:45:07.640Z,62.39
2019-01-27T09:47:58.479Z,62.34
2019-01-27T09:50:52.276Z,62.60
2019-01-27T09:53:32.369Z,62.60
2019-01-27T09:56:32.283Z,63.52
2019-01-27T09:59:12.481Z,63.52
2019-01-27T10:02:15.599Z,63.37
2019-01-27T10:04:52.734Z,63.51
2019-01-27T10:07:46.314Z,63.66
2019-01-27T10:10:38.780Z,63.27
2019-01-27T10:13:26.320Z,63.48
2019-01-27T10:16:23.336Z,63.23
2019-01-27T10:19:16.895Z,63.31
2019-01-27T10:22:26.312Z,63.43
2019-01-27T10:25:16.942Z,63.05
2019-01-27T10:28:00.150Z,63.05
2019-01-27T10:30:52.362Z,62.12
2019-01-27T10:33:37.618Z,62.09
2019-01-27T10:36:37.591Z,61.39
2019-01-27T10:39:31.887Z,60.79
2019-01-27T10:42:22.697Z,60.67
2019-01-27T10:45:13.735Z,60.74
2019-01-27T10:48:03.923Z,60.56
2019-01-27T10:50:52.762Z,60.33
2019-01-27T10:53:46.375Z,60.14
2019-01-27T10:56:26.635Z,59.75
2019-01-27T10:59:16.339Z,59.47
2019-01-27T11:02:06.274Z,59.61
2019-01-27T11:04:54.374Z,60.04
2019-01-27T11:07:50.939Z,60.37
2019-01-27T11:10:43.738Z,59.98
2019-01-27T11:13:34.434Z,60.19
2019-01-27T11:16:17.705Z,60.07
2019-01-27T11:18:57.836Z,60.07
2019-01-27T11:22:00.371Z,60.24
2019-01-27T11:24:53.310Z,60.65
2019-01-27T11:27:43.383Z,60.65
2019-01-27T11:30:35.736Z,60.59
2019-01-27T11:33:20.294Z,60.55
2019-01-27T11:36:13.937Z,60.55
2019-01-27T11:39:04.669Z,60.20
2019-01-27T11:41:54.324Z,60.22
2019-01-27T11:44:44.298Z,60.08
2019-01-27T11:47:34.364Z,60.08
2019-01-27T11:50:17.722Z,59.95
2019-01-27T11:53:02.608Z,59.89
2019-01-27T11:55:34.890Z,59.82
2019-01-27T11:58:07.274Z,59.44
2019-01-27T12:00:40.329Z,59.59
2019-01-27T12:03:11.119Z,59.69
2019-01-27T12:05:43.273Z,59.42
2019-01-27T12:08:15.266Z,59.25
2019-01-27T12:10:47.270Z,59.22
2019-01-27T12:13:18.133Z,59.22
2019-01-27T12:15:50.276Z,58.85
2019-01-27T12:18:21.046Z,58.68
2019-01-27T12:20:53.210Z,58.50
2019-01-27T12:23:23.991Z,58.85
2019-01-27T12:25:56.101Z,58.83
2019-01-27T12:28:26.943Z,58.71
2019-01-27T12:30:59.081Z,58.58
2019-01-27T12:33:29.653Z,58.38
2019-01-27T12:36:01.739Z,57.92
2019-01-27T12:38:33.944Z,57.52
2019-01-27T12:41:05.945Z,57.87
2019-01-27T12:43:38.075Z,57.90
2019-01-27T12:46:10.270Z,58.09
2019-01-27T12:48:40.994Z,57.61
2019-01-27T12:51:13.130Z,57.48
2019-01-27T12:53:45.130Z,56.32
2019-01-27T12:56:15.939Z,55.87
2019-01-27T12:58:47.939Z,56.56
2019-01-27T13:01:19.944Z,57.12
2019-01-27T13:03:52.105Z,57.15
2019-01-27T13:06:22.862Z,56.42
2019-01-27T13:08:54.940Z,55.11
2019-01-27T13:11:27.105Z,54.59
2019-01-27T13:13:57.695Z,52.01
2019-01-27T13:16:29.930Z,49.80
2019-01-27T13:19:02.047Z,47.25
2019-01-27T13:21:34.142Z,46.92
2019-01-27T13:24:04.966Z,41.17
2019-01-27T13:26:37.077Z,43.28
2019-01-27T13:29:07.703Z,46.05
2019-01-27T13:31:39.946Z,47.88
2019-01-27T13:34:12.106Z,49.05
2019-01-27T13:36:44.335Z,49.05
2019-01-27T13:39:16.307Z,49.82
2019-01-27T13:44:33.657Z,53.14
2019-01-27T13:47:05.727Z,54.38
2019-01-27T13:49:39.057Z,54.85
2019-01-27T13:52:11.269Z,55.02
2019-01-27T13:54:42.276Z,55.13
2019-01-27T13:57:13.025Z,54.32
2019-01-27T13:59:45.135Z,53.54
2019-01-27T14:02:15.971Z,51.85
2019-01-27T14:04:48.578Z,50.51
2019-01-27T14:07:20.899Z,49.99
2019-01-27T14:09:52.923Z,48.93
2019-01-27T14:12:29.280Z,47.86
2019-01-27T14:15:02.461Z,45.33
2019-01-27T14:17:39.358Z,44.29
2019-01-27T14:20:14.317Z,44.29
2019-01-27T14:22:46.857Z,43.40
2019-01-27T14:25:21.281Z,43.63
2019-01-27T14:27:52.174Z,46.40
2019-01-27T14:30:25.365Z,48.38
2019-01-27T14:32:57.693Z,51.90
2019-01-27T14:35:30.272Z,51.90
2019-01-27T14:38:01.042Z,53.08
2019-01-27T14:42:12.637Z,54.41
2019-01-27T14:44:44.685Z,54.71
2019-01-27T14:47:16.923Z,54.98
2019-01-27T14:49:48.937Z,55.15
2019-01-27T14:52:21.105Z,55.64
2019-01-27T14:54:51.784Z,56.49
2019-01-27T14:57:23.930Z,56.49
2019-01-27T15:02:41.349Z,56.91
2019-01-27T15:05:13.280Z,56.93
2019-01-27T15:07:43.663Z,57.49
2019-01-27T15:10:23.540Z,57.39
2019-01-27T15:13:04.923Z,58.36
2019-01-27T15:15:43.021Z,58.36
2019-01-27T15:18:22.277Z,58.30
2019-01-27T15:21:06.384Z,58.52
2019-01-27T15:23:38.319Z,58.78
2019-01-27T15:26:10.313Z,59.14
2019-01-27T15:28:42.320Z,59.28
2019-01-27T15:31:14.080Z,59.47
2019-01-27T15:33:46.134Z,59.66
2019-01-27T15:36:18.302Z,59.78
2019-01-27T15:38:50.285Z,59.88
2019-01-27T15:41:20.864Z,59.90
2019-01-27T15:43:52.945Z,60.22
2019-01-27T15:46:25.116Z,60.30
2019-01-27T15:48:57.248Z,60.50
2019-01-27T15:51:27.862Z,60.50
2019-01-27T15:54:00.297Z,60.46
2019-01-27T15:56:32.347Z,60.32
2019-01-27T15:59:03.002Z,60.17
2019-01-27T16:01:35.207Z,60.50
2019-01-27T16:04:05.802Z,60.91
2019-01-27T16:06:39.966Z,61.29
2019-01-27T16:09:12.459Z,61.24
2019-01-27T16:11:44.911Z,61.76
2019-01-27T16:14:17.347Z,61.76
2019-01-27T16:16:49.983Z,62.47
2019-01-27T16:19:22.468Z,62.47
2019-01-27T16:21:55.096Z,62.56
2019-01-27T16:24:32.279Z,62.56
2019-01-27T16:27:04.926Z,62.55
2019-01-27T16:30:02.353Z,62.69
2019-01-27T16:32:37.306Z,62.98
2019-01-27T16:35:13.405Z,62.98
2019-01-27T16:37:45.373Z,62.86
2019-01-27T16:40:18.947Z,62.75
2019-01-27T16:42:51.517Z,62.75
2019-01-27T16:45:24.275Z,62.77
2019-01-27T16:47:55.260Z,62.67
2019-01-27T16:50:27.037Z,62.62
2019-01-27T16:52:59.502Z,62.62
2019-01-27T16:55:32.258Z,62.61
2019-01-27T16:58:03.264Z,62.61
2019-01-27T17:00:34.067Z,62.67
2019-01-27T17:03:07.150Z,63.08
2019-01-27T17:05:39.327Z,63.08
2019-01-27T17:08:11.950Z,62.93
2019-01-27T17:10:44.277Z,63.06
2019-01-27T17:16:02.260Z,63.09
2019-01-27T17:18:35.674Z,63.05
2019-01-27T17:21:08.529Z,63.04
2019-01-27T17:23:40.963Z,63.07
2019-01-27T17:26:13.359Z,63.12
2019-01-27T17:28:45.791Z,63.51
2019-01-27T17:31:18.310Z,63.51
2019-01-27T17:33:50.806Z,63.37
2019-01-27T17:36:23.417Z,63.46
2019-01-27T17:38:55.630Z,63.57
2019-01-27T17:41:28.297Z,63.57
2019-01-27T17:43:59.113Z,63.59
2019-01-27T17:46:31.298Z,63.70
2019-01-27T17:49:03.271Z,63.55
2019-01-27T17:51:34.897Z,63.49
2019-01-27T17:54:10.293Z,63.77
2019-01-27T17:56:45.509Z,64.03
2019-01-27T17:59:29.942Z,64.05
2019-01-27T18:02:39.450Z,64.17
2019-01-27T18:05:21.317Z,64.29
2019-01-27T18:08:12.882Z,64.51
2019-01-27T18:11:15.961Z,64.51
2019-01-27T18:13:56.941Z,64.65
2019-01-27T18:16:30.164Z,64.48
2019-01-27T18:19:00.883Z,64.43
2019-01-27T18:21:32.948Z,64.33
2019-01-27T18:24:05.280Z,64.30
2019-01-27T18:26:36.087Z,64.30
2019-01-27T18:29:08.311Z,64.30
2019-01-27T18:31:38.966Z,63.96
2019-01-27T18:34:11.257Z,63.96
2019-01-27T18:36:41.690Z,64.31
2019-01-27T18:39:14.889Z,64.53
2019-01-27T18:41:47.276Z,64.44
2019-01-27T18:44:19.328Z,64.50
2019-01-27T18:46:50.093Z,64.52
2019-01-27T18:49:21.111Z,64.59
2019-01-27T18:51:51.872Z,64.56
2019-01-27T18:55:02.616Z,64.86
2019-01-27T18:57:50.595Z,64.78
2019-01-27T19:00:53.765Z,64.91
2019-01-27T19:03:54.283Z,65.01
2019-01-27T19:06:34.609Z,65.46
2019-01-27T19:09:32.764Z,65.03
2019-01-27T19:12:23.717Z,65.03
2019-01-27T19:15:13.292Z,65.08
2019-01-27T19:18:02.814Z,65.25
2019-01-27T19:20:49.112Z,65.06
2019-01-27T19:23:53.862Z,65.15
2019-01-27T19:26:50.313Z,65.14
2019-01-27T19:29:35.290Z,65.41
2019-01-27T19:32:26.273Z,65.77
2019-01-27T19:35:16.015Z,65.62
2019-01-27T19:38:12.619Z,65.35
2019-01-27T19:40:57.278Z,65.48
2019-01-27T19:43:52.683Z,65.54
2019-01-27T19:46:46.310Z,65.70
2019-01-27T19:49:24.654Z,65.74
2019-01-27T19:52:06.132Z,65.71
2019-01-27T19:55:09.316Z,65.70
2019-01-27T19:58:18.288Z,65.70
2019-01-27T20:01:06.280Z,65.71
2019-01-27T20:03:58.696Z,65.51
2019-01-27T20:06:46.665Z,65.29
2019-01-27T20:09:32.694Z,65.34
2019-01-27T20:12:39.147Z,65.34
2019-01-27T20:15:50.964Z,65.50
2019-01-27T20:18:48.287Z,65.03
2019-01-27T20:21:32.854Z,64.95
2019-01-27T20:24:20.674Z,64.64
2019-01-27T20:27:20.943Z,64.55
2019-01-27T20:30:11.586Z,64.46
2019-01-27T20:32:57.528Z,64.47
2019-01-27T20:35:44.594Z,64.13
2019-01-27T20:38:34.243Z,64.13
2019-01-27T20:41:19.436Z,64.11
2019-01-27T20:44:08.883Z,64.09
2019-01-27T20:46:48.304Z,64.00
2019-01-27T20:49:38.030Z,64.07
2019-01-27T20:52:29.092Z,64.15
2019-01-27T20:55:21.536Z,64.15
2019-01-27T20:58:22.396Z,63.97
2019-01-27T21:01:01.487Z,63.91
2019-01-27T21:03:46.683Z,63.66
2019-01-27T21:06:52.935Z,63.66
2019-01-27T21:09:54.272Z,63.55
2019-01-27T21:12:43.768Z,63.52
2019-01-27T21:15:44.724Z,63.52
2019-01-27T21:18:33.278Z,63.34
2019-01-27T21:21:04.218Z,63.45
2019-01-27T21:23:35.008Z,63.20
2019-01-27T21:26:07.640Z,63.19
2019-01-27T21:28:40.175Z,63.11
2019-01-27T21:31:10.854Z,63.05
2019-01-27T21:33:42.962Z,63.08
2019-01-27T21:36:14.955Z,63.30
2019-01-27T21:38:47.274Z,63.27
2019-01-27T21:41:18.053Z,63.19
2019-01-27T21:43:50.120Z,63.18
2019-01-27T21:46:22.339Z,63.11
2019-01-27T21:48:54.274Z,62.88
2019-01-27T21:51:24.859Z,62.79
2019-01-27T21:53:57.258Z,63.21
2019-01-27T21:56:28.013Z,62.46
2019-01-27T21:59:00.256Z,62.44
2019-01-27T22:01:30.862Z,62.43
2019-01-27T22:04:02.956Z,62.33
2019-01-27T22:06:35.278Z,62.31
2019-01-27T22:09:08.854Z,62.35
2019-01-27T22:11:40.947Z,62.45
2019-01-27T22:14:13.006Z,62.36
2019-01-27T22:16:47.287Z,62.18
2019-01-27T22:19:19.735Z,62.21
2019-01-27T22:21:51.949Z,62.19
2019-01-27T22:24:25.639Z,62.27
2019-01-27T22:26:57.753Z,62.38
2019-01-27T22:29:30.123Z,62.44
2019-01-27T22:32:01.502Z,62.16
2019-01-27T22:34:33.795Z,62.01
2019-01-27T22:37:06.112Z,61.84
2019-01-27T22:39:38.273Z,61.90
2019-01-27T22:42:09.108Z,61.88
2019-01-27T22:44:40.270Z,61.75
2019-01-27T22:47:11.010Z,61.69
2019-01-27T22:49:43.261Z,61.80
2019-01-27T22:52:13.865Z,61.73
2019-01-27T22:54:46.098Z,61.62
2019-01-27T22:57:18.304Z,61.41
2019-01-27T22:59:50.279Z,61.36
2019-01-27T23:02:21.128Z,60.99
2019-01-27T23:04:51.801Z,60.99
2019-01-27T23:07:23.950Z,61.08
2019-01-27T23:09:56.155Z,61.05
2019-01-27T23:12:28.414Z,61.07
2019-01-27T23:15:00.663Z,61.22
2019-01-27T23:17:32.675Z,61.22
2019-01-27T23:20:05.281Z,61.39
2019-01-27T23:22:35.818Z,61.47
2019-01-27T23:25:08.487Z,61.65
2019-01-27T23:27:41.721Z,61.99
2019-01-27T23:30:14.270Z,62.05
2019-01-27T23:32:44.999Z,62.05
2019-01-27T23:35:17.319Z,62.22
2019-01-27T23:37:48.326Z,62.11
2019-01-27T23:40:22.647Z,61.99
2019-01-27T23:42:54.806Z,61.94
2019-01-27T23:45:26.975Z,62.03
2019-01-27T23:47:59.145Z,62.17
2019-01-27T23:50:30.091Z,62.13
2019-01-27T23:53:02.299Z,62.23
2019-01-27T23:55:34.481Z,62.29
2019-01-27T23:58:06.907Z,62.32
